Time;durP1;ratioP1;P1;durP2;ratioP2;P2;SDS_P1;SDS_P2;PMS_P1;PMS_P2;Temp;Humidity;BMP_temperature;BMP_pressure;BME280_temperature;BME280_humidity;BME280_pressure;Samples;Min_cycle;Max_cycle;Signal;HPM_P1;HPM_P2
2022/03/07 00:01:09;;;;;;;1999.90;999.90;;;5.70;57.80;;;;;;4990471;28;20050;-87
2022/03/07 00:03:36;;;;;;;1999.90;999.90;;;5.70;57.90;;;;;;4986852;28;20054;-88
2022/03/07 00:06:02;;;;;;;1999.90;999.90;;;5.70;57.90;;;;;;4992271;28;20050;-89
2022/03/07 00:08:28;;;;;;;1999.90;999.90;;;5.70;57.90;;;;;;4990422;28;20034;-86
2022/03/07 00:10:54;;;;;;;1999.90;999.90;;;5.70;58.00;;;;;;4989871;28;20055;-88
2022/03/07 00:13:21;;;;;;;1999.90;999.90;;;5.60;58.10;;;;;;4991391;28;20380;-88
2022/03/07 00:15:47;;;;;;;1999.90;999.90;;;5.60;58.10;;;;;;4986653;28;20051;-87
2022/03/07 00:18:13;;;;;;;1999.90;999.90;;;5.60;58.20;;;;;;4986758;28;20523;-88
2022/03/07 00:20:39;;;;;;;1999.90;999.90;;;5.50;58.10;;;;;;4967904;28;20043;-89
2022/03/07 00:23:05;;;;;;;1999.90;999.90;;;5.50;58.10;;;;;;4972762;28;20038;-87
2022/03/07 00:25:31;;;;;;;1999.90;999.90;;;5.50;58.20;;;;;;4991383;28;20046;-89
2022/03/07 00:27:57;;;;;;;1999.90;999.90;;;5.50;58.20;;;;;;4987920;28;20042;-89
2022/03/07 00:30:23;;;;;;;1999.90;999.90;;;5.50;58.30;;;;;;4957375;28;20038;-87
2022/03/07 00:32:50;;;;;;;1999.90;999.90;;;5.50;58.30;;;;;;4965748;28;20030;-89
2022/03/07 00:35:17;;;;;;;1999.90;999.90;;;5.50;58.30;;;;;;4987100;28;20071;-88
2022/03/07 00:37:43;;;;;;;1999.90;999.90;;;5.40;58.30;;;;;;4989894;28;20057;-88
2022/03/07 00:40:10;;;;;;;1999.90;999.90;;;5.40;58.40;;;;;;4975136;28;20728;-90
2022/03/07 00:42:40;;;;;;;1999.90;999.90;;;5.40;58.40;;;;;;4987786;28;20534;-87
2022/03/07 00:45:07;;;;;;;1999.90;999.90;;;5.30;58.40;;;;;;4975760;28;20043;-88
2022/03/07 00:47:34;;;;;;;1999.90;999.90;;;5.30;58.40;;;;;;4975296;28;20053;-88
2022/03/07 00:50:00;;;;;;;1999.90;999.90;;;5.30;58.50;;;;;;4972640;28;20068;-87
2022/03/07 00:52:27;;;;;;;1999.90;999.90;;;5.30;58.50;;;;;;4973936;28;20038;-88
2022/03/07 00:54:53;;;;;;;1999.90;999.90;;;5.30;58.50;;;;;;4986317;28;20480;-88
2022/03/07 00:57:19;;;;;;;1999.90;999.90;;;5.30;58.60;;;;;;4985592;28;20037;-88
2022/03/07 00:59:45;;;;;;;1999.90;999.90;;;5.20;58.60;;;;;;4983717;28;20046;-88
2022/03/07 01:02:11;;;;;;;1999.90;999.90;;;5.20;58.60;;;;;;4971891;28;20057;-88
2022/03/07 01:04:37;;;;;;;1340.07;673.03;;;5.20;58.70;;;;;;4990554;28;20042;-88
2022/03/07 01:07:04;;;;;;;18.23;17.33;;;5.20;59.30;;;;;;4989730;28;20080;-87
2022/03/07 01:09:30;;;;;;;18.10;17.20;;;5.10;58.70;;;;;;4985374;28;20030;-87
2022/03/07 01:11:56;;;;;;;18.17;17.27;;;5.10;58.70;;;;;;4990374;28;20034;-89
2022/03/07 01:14:22;;;;;;;18.40;17.53;;;5.20;58.80;;;;;;4974269;28;20480;-88
2022/03/07 01:16:48;;;;;;;18.30;17.30;;;5.10;58.70;;;;;;4976523;28;20031;-88
2022/03/07 01:19:14;;;;;;;16.70;15.90;;;5.10;58.80;;;;;;4994466;28;20030;-86
2022/03/07 01:21:40;;;;;;;17.63;16.73;;;5.00;59.40;;;;;;4993347;28;20042;-87
2022/03/07 01:24:07;;;;;;;19.47;17.93;;;5.00;58.90;;;;;;4988720;28;20034;-89
2022/03/07 01:26:34;;;;;;;17.67;16.50;;;5.00;58.90;;;;;;4988038;28;20042;-88
2022/03/07 01:29:00;;;;;;;17.63;16.63;;;5.00;58.90;;;;;;4994056;28;20026;-87
2022/03/07 01:31:27;;;;;;;17.87;16.90;;;5.00;59.00;;;;;;4994068;28;20459;-88
2022/03/07 01:33:53;;;;;;;17.60;16.77;;;5.00;59.00;;;;;;4995499;28;20042;-88
2022/03/07 01:36:19;;;;;;;17.00;16.20;;;4.90;59.00;;;;;;4992945;28;20030;-87
2022/03/07 01:38:45;;;;;;;16.40;15.37;;;4.90;59.00;;;;;;4992053;28;20057;-86
2022/03/07 01:41:12;;;;;;;16.33;15.43;;;4.90;59.10;;;;;;4992614;28;20400;-87
2022/03/07 01:43:38;;;;;;;18.33;17.37;;;4.80;59.10;;;;;;4961168;28;20492;-88
2022/03/07 01:46:04;;;;;;;16.90;16.10;;;4.80;59.10;;;;;;4989577;28;20061;-87
2022/03/07 01:48:30;;;;;;;16.83;16.03;;;4.80;59.20;;;;;;4993223;28;20030;-88
2022/03/07 01:50:56;;;;;;;17.80;16.90;;;4.80;59.20;;;;;;4991232;28;20400;-86
2022/03/07 01:53:22;;;;;;;17.07;16.17;;;4.80;59.30;;;;;;4974248;28;20026;-88
2022/03/07 01:55:48;;;;;;;17.93;17.03;;;4.70;59.30;;;;;;4991333;28;20387;-87
2022/03/07 01:58:14;;;;;;;16.70;15.90;;;4.70;59.30;;;;;;4979514;28;20384;-87
2022/03/07 02:00:40;;;;;;;16.80;16.00;;;4.70;59.40;;;;;;4984324;28;20042;-89
2022/03/07 02:03:07;;;;;;;16.97;16.13;;;4.70;59.40;;;;;;4987792;28;20046;-88
2022/03/07 02:05:34;;;;;;;18.87;17.77;;;4.70;59.40;;;;;;4991448;28;20054;-89
2022/03/07 02:08:00;;;;;;;17.47;16.67;;;4.70;59.40;;;;;;4974992;28;20042;-89
2022/03/07 02:10:27;;;;;;;18.27;17.03;;;4.70;60.00;;;;;;4976866;28;20053;-87
2022/03/07 02:12:53;;;;;;;18.13;17.23;;;4.70;59.40;;;;;;4988958;28;20049;-89
2022/03/07 02:15:19;;;;;;;18.43;17.53;;;4.60;59.50;;;;;;4968743;28;20471;-87
2022/03/07 02:17:46;;;;;;;17.13;16.30;;;4.60;59.50;;;;;;4992115;28;20403;-86
2022/03/07 02:20:12;;;;;;;17.07;16.27;;;4.60;59.50;;;;;;4972963;28;20046;-89
2022/03/07 02:22:38;;;;;;;17.63;16.53;;;4.60;59.50;;;;;;4989592;28;20031;-86
2022/03/07 02:25:05;;;;;;;17.13;16.33;;;4.70;59.50;;;;;;4993305;28;20034;-87
2022/03/07 02:27:32;;;;;;;18.37;17.40;;;4.70;59.50;;;;;;4992960;28;20042;-88
2022/03/07 02:29:59;;;;;;;20.27;18.67;;;4.60;59.50;;;;;;4989793;28;20049;-88
2022/03/07 02:32:26;;;;;;;18.60;17.57;;;4.60;60.20;;;;;;4967946;28;20053;-85
2022/03/07 02:34:52;;;;;;;17.40;16.50;;;4.60;59.60;;;;;;4993342;28;20053;-88
2022/03/07 02:37:19;;;;;;;678.63;344.70;;;4.60;59.70;;;;;;4959069;28;20527;-86
2022/03/07 02:39:45;;;;;;;17.17;16.27;;;4.60;59.70;;;;;;4991097;28;20026;-86
2022/03/07 02:42:12;;;;;;;17.77;16.83;;;4.50;59.60;;;;;;4990672;28;20034;-88
2022/03/07 02:44:38;;;;;;;16.50;15.70;;;4.50;59.70;;;;;;4991659;28;20046;-87
2022/03/07 02:47:05;;;;;;;16.50;15.70;;;4.50;59.70;;;;;;4982644;28;20061;-88
2022/03/07 02:49:31;;;;;;;17.00;16.20;;;4.40;59.80;;;;;;4989442;28;20474;-86
2022/03/07 02:51:57;;;;;;;18.93;17.83;;;4.40;59.90;;;;;;4987275;28;20026;-88
2022/03/07 02:54:23;;;;;;;18.37;17.40;;;4.40;59.90;;;;;;4991595;28;20035;-88
2022/03/07 02:56:49;;;;;;;17.17;16.37;;;4.40;59.90;;;;;;4989142;28;20026;-87
2022/03/07 02:59:15;;;;;;;17.27;16.37;;;4.40;59.90;;;;;;4974834;28;20034;-89
2022/03/07 03:01:44;;;;;;;17.10;16.30;;;4.30;59.90;;;;;;4990596;28;20042;-89
2022/03/07 03:04:11;;;;;;;18.20;17.30;;;4.30;59.80;;;;;;4968079;28;20035;-89
2022/03/07 03:06:37;;;;;;;17.27;16.43;;;4.30;59.80;;;;;;4971056;28;20034;-90
2022/03/07 03:09:03;;;;;;;18.40;17.40;;;4.30;59.90;;;;;;4982531;28;20030;-88
2022/03/07 03:11:29;;;;;;;18.27;17.33;;;4.30;60.00;;;;;;4958448;28;20038;-88
2022/03/07 03:13:55;;;;;;;17.60;16.63;;;4.20;60.00;;;;;;4988991;28;20026;-87
2022/03/07 03:16:21;;;;;;;17.03;16.23;;;4.20;60.00;;;;;;4998092;28;20479;-88
2022/03/07 03:18:48;;;;;;;18.97;17.97;;;4.10;60.10;;;;;;4984470;28;20054;-88
2022/03/07 03:21:14;;;;;;;17.93;17.07;;;4.10;60.20;;;;;;4990494;28;20038;-87
2022/03/07 03:23:40;;;;;;;18.17;17.27;;;4.00;60.30;;;;;;4970740;28;20035;-87
2022/03/07 03:26:06;;;;;;;17.37;16.57;;;4.00;60.40;;;;;;4979810;28;20049;-86
2022/03/07 03:28:32;;;;;;;18.00;17.10;;;3.90;60.70;;;;;;4991305;28;20380;-87
2022/03/07 03:30:58;;;;;;;19.30;17.80;;;3.90;60.50;;;;;;4990265;28;20042;-88
2022/03/07 03:33:24;;;;;;;16.37;15.57;;;3.90;60.50;;;;;;4989431;28;20050;-88
2022/03/07 03:35:50;;;;;;;18.63;17.60;;;3.90;60.60;;;;;;4988624;28;20026;-90
2022/03/07 03:38:17;;;;;;;17.57;16.77;;;3.90;60.60;;;;;;4965846;28;20054;-86
2022/03/07 03:40:43;;;;;;;18.90;17.90;;;3.80;60.60;;;;;;4990415;28;20812;-87
2022/03/07 03:43:09;;;;;;;18.57;17.67;;;3.80;60.60;;;;;;4991097;28;20022;-87
2022/03/07 03:45:35;;;;;;;18.90;18.00;;;3.90;60.70;;;;;;4968486;28;20041;-86
2022/03/07 03:48:01;;;;;;;18.50;17.53;;;3.80;60.60;;;;;;4987514;28;20045;-89
2022/03/07 03:50:27;;;;;;;17.40;16.60;;;3.90;60.70;;;;;;4974290;28;20037;-87
2022/03/07 03:52:53;;;;;;;18.03;17.00;;;3.80;60.70;;;;;;4991137;28;20053;-87
2022/03/07 03:55:21;;;;;;;18.30;17.30;;;3.80;60.80;;;;;;4987517;28;20383;-87
2022/03/07 03:57:47;;;;;;;17.87;16.93;;;3.80;60.80;;;;;;4988119;28;20030;-87
2022/03/07 04:00:15;;;;;;;17.93;17.07;;;3.80;60.90;;;;;;4967176;28;20034;-87
2022/03/07 04:02:44;;;;;;;17.07;16.17;;;3.80;60.80;;;;;;4980189;28;20027;-86
2022/03/07 04:05:11;;;;;;;18.90;17.90;;;3.80;60.80;;;;;;4988117;28;20043;-89
2022/03/07 04:07:38;;;;;;;18.30;17.43;;;3.80;61.00;;;;;;4991115;28;20038;-88
2022/03/07 04:10:05;;;;;;;19.23;18.13;;;3.70;60.90;;;;;;4988691;28;20030;-88
2022/03/07 04:12:31;;;;;;;18.87;17.90;;;3.70;61.10;;;;;;4988301;28;20034;-87
2022/03/07 04:14:57;;;;;;;20.73;19.37;;;3.70;61.10;;;;;;4990435;28;20030;-87
2022/03/07 04:17:23;;;;;;;18.67;17.77;;;3.70;61.20;;;;;;4987813;28;20038;-88
2022/03/07 04:19:49;;;;;;;19.70;18.63;;;3.70;61.20;;;;;;4990594;28;20026;-86
2022/03/07 04:22:15;;;;;;;1999.90;999.90;;;3.70;61.20;;;;;;4991201;28;20027;-86
2022/03/07 04:24:41;;;;;;;1999.90;999.90;;;3.70;61.20;;;;;;4965605;28;20033;-83
2022/03/07 04:27:08;;;;;;;1999.90;999.90;;;3.70;61.10;;;;;;4972830;28;20053;-85
2022/03/07 04:29:34;;;;;;;1999.90;999.90;;;3.70;61.20;;;;;;4990019;28;20026;-86
2022/03/07 04:32:00;;;;;;;1999.90;999.90;;;3.70;61.10;;;;;;4989109;28;20487;-84
2022/03/07 04:34:26;;;;;;;1999.90;999.90;;;3.70;61.10;;;;;;4987410;28;20360;-84
2022/03/07 04:36:53;;;;;;;1999.90;999.90;;;3.70;61.10;;;;;;4989434;28;20037;-86
2022/03/07 04:39:19;;;;;;;1999.90;999.90;;;3.70;61.10;;;;;;4986917;28;20440;-86
2022/03/07 04:41:45;;;;;;;1999.90;999.90;;;3.70;61.10;;;;;;4985962;28;20045;-84
2022/03/07 04:44:12;;;;;;;1999.90;999.90;;;3.70;61.20;;;;;;4987970;28;20034;-85
2022/03/07 04:46:38;;;;;;;1999.90;999.90;;;3.70;61.30;;;;;;4989781;28;20392;-85
2022/03/07 04:49:04;;;;;;;1999.90;999.90;;;3.60;61.30;;;;;;4990601;28;20425;-84
2022/03/07 04:51:30;;;;;;;1999.90;999.90;;;3.60;61.30;;;;;;4970183;28;20026;-85
2022/03/07 04:53:56;;;;;;;1999.90;999.90;;;3.60;61.30;;;;;;4992986;28;20030;-86
2022/03/07 04:56:23;;;;;;;680.97;346.70;;;3.60;61.40;;;;;;4994163;28;20030;-84
2022/03/07 04:58:49;;;;;;;19.00;17.97;;;3.60;61.50;;;;;;4989786;28;20037;-85
2022/03/07 05:01:15;;;;;;;1999.90;999.90;;;3.50;61.60;;;;;;4987580;28;20779;-84
2022/03/07 05:03:41;;;;;;;1999.90;999.90;;;3.50;61.60;;;;;;4969671;28;20034;-84
2022/03/07 05:06:10;;;;;;;1999.90;999.90;;;3.50;61.60;;;;;;4973351;28;20039;-85
2022/03/07 05:08:39;;;;;;;18.40;17.43;;;3.40;61.60;;;;;;4988552;28;20042;-91
2022/03/07 05:11:06;;;;;;;1999.90;999.90;;;3.40;61.70;;;;;;4988617;28;20030;-90
2022/03/07 05:13:32;;;;;;;1999.90;999.90;;;3.40;61.70;;;;;;4993474;28;20360;-89
2022/03/07 05:15:58;;;;;;;1999.90;999.90;;;3.30;61.70;;;;;;4969984;28;20057;-89
2022/03/07 05:18:24;;;;;;;18.17;17.07;;;3.30;61.80;;;;;;4989015;28;20042;-89
2022/03/07 05:20:50;;;;;;;1999.90;999.90;;;3.30;61.90;;;;;;4990592;28;20041;-91
2022/03/07 05:23:16;;;;;;;1999.90;999.90;;;3.30;61.90;;;;;;4990790;28;20031;-91
2022/03/07 05:25:42;;;;;;;17.80;17.00;;;3.20;62.00;;;;;;4993718;28;20475;-89
2022/03/07 05:28:08;;;;;;;1999.90;999.90;;;3.20;62.00;;;;;;4990014;28;20054;-90
2022/03/07 05:30:34;;;;;;;1999.90;999.90;;;3.20;62.10;;;;;;4954828;28;20041;-89
2022/03/07 05:33:01;;;;;;;678.97;345.03;;;3.10;62.10;;;;;;4975152;28;20046;-90
2022/03/07 05:35:28;;;;;;;1999.90;999.90;;;3.10;62.20;;;;;;4983286;28;20046;-90
2022/03/07 05:37:54;;;;;;;19.60;18.50;;;3.10;62.20;;;;;;4994639;28;20458;-88
2022/03/07 05:40:20;;;;;;;1999.90;999.90;;;3.10;62.20;;;;;;4995192;28;20027;-90
2022/03/07 05:42:46;;;;;;;680.47;346.27;;;3.10;62.30;;;;;;4992909;28;20034;-89
2022/03/07 05:45:13;;;;;;;19.43;18.43;;;3.10;62.40;;;;;;4990536;28;20034;-90
2022/03/07 05:47:40;;;;;;;19.10;18.10;;;3.00;62.30;;;;;;4962022;28;20054;-90
2022/03/07 05:50:06;;;;;;;19.37;18.33;;;3.00;62.40;;;;;;4991841;28;20050;-90
2022/03/07 05:52:32;;;;;;;18.37;17.53;;;3.00;62.60;;;;;;4977711;28;20046;-89
2022/03/07 05:54:58;;;;;;;17.70;16.90;;;2.90;62.60;;;;;;4978312;28;20050;-91
2022/03/07 05:57:24;;;;;;;18.87;17.97;;;2.90;62.70;;;;;;4980680;28;20438;-90
2022/03/07 05:59:51;;;;;;;17.13;16.23;;;2.90;62.80;;;;;;4966077;28;20058;-90
2022/03/07 06:02:17;;;;;;;18.33;17.33;;;2.90;62.90;;;;;;4990564;28;20511;-90
2022/03/07 06:04:44;;;;;;;18.33;17.50;;;2.90;63.40;;;;;;4975292;28;20078;-90
2022/03/07 06:07:10;;;;;;;18.53;17.63;;;2.90;62.90;;;;;;4994482;28;20038;-89
2022/03/07 06:09:36;;;;;;;20.30;19.20;;;2.80;62.90;;;;;;4993518;28;20049;-90
2022/03/07 06:12:03;;;;;;;20.10;19.10;;;2.80;63.00;;;;;;4977101;28;20046;-90
2022/03/07 06:14:29;;;;;;;18.90;17.93;;;2.80;63.10;;;;;;4988255;28;20030;-90
2022/03/07 06:16:55;;;;;;;19.97;18.97;;;2.80;63.20;;;;;;4989987;28;20480;-91
2022/03/07 06:19:21;;;;;;;18.77;17.77;;;2.70;63.30;;;;;;4993956;28;20112;-89
2022/03/07 06:21:47;;;;;;;18.47;17.47;;;2.70;63.30;;;;;;4987853;28;20038;-92
2022/03/07 06:24:13;;;;;;;18.83;17.93;;;2.70;63.30;;;;;;4983027;28;20039;-89
2022/03/07 06:26:40;;;;;;;18.80;17.80;;;2.70;63.40;;;;;;4982042;28;20045;-89
2022/03/07 06:29:06;;;;;;;19.97;18.93;;;2.70;63.40;;;;;;4992973;28;20026;-91
2022/03/07 06:31:32;;;;;;;18.40;17.50;;;2.70;63.50;;;;;;4990186;28;20483;-91
2022/03/07 06:33:58;;;;;;;19.90;18.60;;;2.70;63.60;;;;;;4990616;28;20027;-89
2022/03/07 06:36:24;;;;;;;18.20;17.30;;;2.70;63.60;;;;;;4987620;28;20053;-91
2022/03/07 06:38:50;;;;;;;18.03;17.17;;;2.60;63.70;;;;;;4991698;28;20027;-89
2022/03/07 06:41:16;;;;;;;17.40;16.60;;;2.60;63.70;;;;;;4990616;28;20042;-91
2022/03/07 06:43:43;;;;;;;18.90;18.00;;;2.60;63.70;;;;;;4991974;28;20030;-91
2022/03/07 06:46:09;;;;;;;19.50;18.50;;;2.60;63.80;;;;;;4968042;28;20069;-89
2022/03/07 06:48:36;;;;;;;18.27;17.37;;;2.60;63.90;;;;;;4977771;28;20050;-91
2022/03/07 06:51:02;;;;;;;18.37;17.33;;;2.60;63.80;;;;;;4973873;28;20046;-91
2022/03/07 06:53:28;;;;;;;1339.27;672.33;;;2.60;63.90;;;;;;4961760;28;20043;-93
2022/03/07 06:58:33;;;;;;;19.03;18.03;;;2.60;64.10;;;;;;5037986;23;19945;-92
2022/03/07 07:00:59;;;;;;;18.53;17.60;;;2.60;64.20;;;;;;4994187;28;20483;-85
2022/03/07 07:03:25;;;;;;;679.03;345.03;;;2.60;64.20;;;;;;4988498;28;20042;-85
2022/03/07 07:05:51;;;;;;;18.90;17.90;;;2.60;64.20;;;;;;4991736;28;20053;-89
2022/03/07 07:08:17;;;;;;;17.47;16.67;;;2.60;64.40;;;;;;4992502;28;20050;-91
2022/03/07 07:10:43;;;;;;;19.17;17.90;;;2.60;64.50;;;;;;4994203;28;20061;-89
2022/03/07 07:13:14;;;;;;;19.57;18.67;;;2.60;64.70;;;;;;4993707;28;20037;-86
2022/03/07 07:15:42;;;;;;;19.87;18.83;;;2.60;64.70;;;;;;4989161;28;20045;-88
2022/03/07 07:18:08;;;;;;;18.57;17.67;;;2.60;64.60;;;;;;4973428;28;20058;-83
2022/03/07 07:20:35;;;;;;;20.93;19.83;;;2.60;64.50;;;;;;4990939;28;20079;-81
2022/03/07 07:23:01;;;;;;;20.70;19.70;;;2.60;64.60;;;;;;4981015;28;20026;-80
2022/03/07 07:25:27;;;;;;;18.60;17.70;;;2.70;64.70;;;;;;4991763;28;20093;-83
2022/03/07 07:27:53;;;;;;;1339.43;672.47;;;2.70;64.90;;;;;;4991622;28;20046;-90
2022/03/07 07:30:22;;;;;;;18.37;17.47;;;2.70;65.10;;;;;;4997063;28;20039;-90
2022/03/07 07:32:48;;;;;;;1999.90;999.90;;;2.70;65.10;;;;;;4996284;28;20042;-91
2022/03/07 07:35:14;;;;;;;1999.90;999.90;;;2.80;65.20;;;;;;4989423;28;20034;-91
2022/03/07 07:37:40;;;;;;;1999.90;999.90;;;3.00;65.70;;;;;;4984517;28;20026;-83
2022/03/07 07:40:07;;;;;;;1999.90;999.90;;;3.30;65.20;;;;;;4986021;28;20035;-87
2022/03/07 07:42:34;;;;;;;1999.90;999.90;;;3.60;64.40;;;;;;4986480;28;20049;-85
2022/03/07 07:45:00;;;;;;;1999.90;999.90;;;3.90;63.60;;;;;;4985846;28;20672;-87
2022/03/07 07:47:26;;;;;;;1999.90;999.90;;;4.00;63.40;;;;;;4991107;28;20057;-86
2022/03/07 07:49:52;;;;;;;1999.90;999.90;;;4.10;63.10;;;;;;4986187;28;20387;-86
2022/03/07 07:52:18;;;;;;;1999.90;999.90;;;4.20;62.90;;;;;;4991422;28;20034;-88
2022/03/07 07:54:44;;;;;;;1999.90;999.90;;;4.30;62.80;;;;;;5102503;23;20054;-92
2022/03/07 07:57:12;;;;;;;1999.90;999.90;;;4.50;62.60;;;;;;4991573;28;20045;-92
2022/03/07 07:59:38;;;;;;;1999.90;999.90;;;4.60;62.10;;;;;;4991397;28;20030;-89
2022/03/07 08:02:04;;;;;;;1999.90;999.90;;;4.70;61.90;;;;;;4988040;28;20406;-88
2022/03/07 08:04:31;;;;;;;1999.90;999.90;;;4.80;61.90;;;;;;5006895;28;20034;-86
2022/03/07 08:06:57;;;;;;;1999.90;999.90;;;4.90;61.80;;;;;;4990779;28;20043;-85
2022/03/07 08:09:23;;;;;;;1999.90;999.90;;;5.00;61.70;;;;;;4990382;28;20480;-85
2022/03/07 08:11:49;;;;;;;1999.90;999.90;;;5.20;61.60;;;;;;4990374;28;20030;-91
2022/03/07 08:14:15;;;;;;;1999.90;999.90;;;5.30;61.30;;;;;;4991875;28;20041;-85
2022/03/07 08:16:41;;;;;;;1999.90;999.90;;;5.30;61.10;;;;;;4986127;28;20498;-86
2022/03/07 08:19:07;;;;;;;1999.90;999.90;;;5.40;61.00;;;;;;4968648;28;20026;-85
2022/03/07 08:21:33;;;;;;;1999.90;999.90;;;5.60;61.40;;;;;;4981778;28;20035;-86
2022/03/07 08:24:02;;;;;;;1999.90;999.90;;;5.90;61.10;;;;;;4986755;28;20027;-86
2022/03/07 08:26:28;;;;;;;1999.90;999.90;;;6.10;61.60;;;;;;4992857;28;20407;-88
2022/03/07 08:28:54;;;;;;;1999.90;999.90;;;6.40;60.40;;;;;;4991940;28;20049;-87
2022/03/07 08:31:21;;;;;;;1999.90;999.90;;;6.60;59.90;;;;;;4992244;28;20038;-86
2022/03/07 08:33:47;;;;;;;1999.90;999.90;;;6.70;59.70;;;;;;4994844;28;20387;-87
2022/03/07 08:36:13;;;;;;;1999.90;999.90;;;6.70;59.60;;;;;;4994170;28;20031;-88
2022/03/07 08:38:39;;;;;;;1999.90;999.90;;;6.80;59.50;;;;;;4968605;28;20039;-91
2022/03/07 08:41:05;;;;;;;1999.90;999.90;;;6.90;59.50;;;;;;4991315;28;20042;-92
2022/03/07 08:43:31;;;;;;;1999.90;999.90;;;7.00;59.30;;;;;;4996496;28;20033;-91
2022/03/07 08:45:57;;;;;;;1999.90;999.90;;;7.10;59.30;;;;;;4996105;28;20051;-93
2022/03/07 08:48:24;;;;;;;1999.90;999.90;;;7.30;59.40;;;;;;4991615;28;20042;-92
2022/03/07 08:50:50;;;;;;;1999.90;999.90;;;7.40;59.10;;;;;;5134574;23;20054;-90
2022/03/07 08:53:17;;;;;;;1999.90;999.90;;;7.60;58.90;;;;;;4979498;28;20045;-92
2022/03/07 08:55:43;;;;;;;1999.90;999.90;;;7.60;58.80;;;;;;4987487;28;20057;-90
2022/03/07 08:58:09;;;;;;;1999.90;999.90;;;7.70;58.80;;;;;;4993538;28;20026;-86
2022/03/07 09:00:35;;;;;;;1999.90;999.90;;;7.90;58.40;;;;;;4994826;28;20037;-93
2022/03/07 09:03:03;;;;;;;1999.90;999.90;;;7.90;58.10;;;;;;4973576;28;20026;-87
2022/03/07 09:05:30;;;;;;;1999.90;999.90;;;7.80;57.80;;;;;;4986156;28;20034;-90
2022/03/07 09:07:56;;;;;;;1999.90;999.90;;;7.70;57.80;;;;;;4977454;28;20062;-90
2022/03/07 09:10:22;;;;;;;1999.90;999.90;;;7.70;57.90;;;;;;4991761;28;20407;-88
2022/03/07 09:12:49;;;;;;;1999.90;999.90;;;7.70;58.00;;;;;;4992857;28;20034;-91
2022/03/07 09:15:15;;;;;;;1999.90;999.90;;;7.90;57.50;;;;;;4970102;28;20041;-90
2022/03/07 09:17:42;;;;;;;1999.90;999.90;;;7.90;57.30;;;;;;4977249;28;20038;-90
2022/03/07 09:20:08;;;;;;;1999.90;999.90;;;8.00;57.20;;;;;;4993518;28;20030;-92
2022/03/07 09:22:35;;;;;;;1999.90;999.90;;;8.00;57.20;;;;;;4993576;28;20042;-91
2022/03/07 09:25:02;;;;;;;1999.90;999.90;;;8.20;57.20;;;;;;4991100;28;20022;-92
2022/03/07 09:27:28;;;;;;;1999.90;999.90;;;8.40;56.90;;;;;;4978141;28;20041;-91
2022/03/07 09:29:55;;;;;;;1999.90;999.90;;;8.50;56.70;;;;;;4976458;28;20054;-92
2022/03/07 09:32:21;;;;;;;1999.90;999.90;;;8.70;56.50;;;;;;4992706;28;20030;-90
2022/03/07 09:39:51;;;;;;;1999.90;999.90;;;8.90;55.70;;;;;;4971641;28;20051;-85
2022/03/07 09:42:17;;;;;;;1999.90;999.90;;;8.80;55.50;;;;;;4971326;28;20039;-89
2022/03/07 09:44:43;;;;;;;1999.90;999.90;;;8.80;55.50;;;;;;4969826;28;20175;-89
2022/03/07 09:47:09;;;;;;;1999.90;999.90;;;8.90;55.50;;;;;;4953715;28;20492;-86
2022/03/07 09:49:35;;;;;;;1999.90;999.90;;;8.90;55.40;;;;;;4972664;28;20046;-89
2022/03/07 09:52:02;;;;;;;1999.90;999.90;;;9.00;55.30;;;;;;4975357;28;20027;-87
2022/03/07 09:54:28;;;;;;;1999.90;999.90;;;9.10;55.20;;;;;;4968276;28;20042;-90
2022/03/07 09:56:54;;;;;;;1999.90;999.90;;;9.10;54.90;;;;;;4955461;28;20035;-89
2022/03/07 09:59:21;;;;;;;1999.90;999.90;;;9.10;55.00;;;;;;4958290;28;20043;-93
2022/03/07 10:02:01;;;;;;;1999.90;999.90;;;9.10;54.90;;;;;;4986045;28;20047;-87
2022/03/07 10:04:29;;;;;;;1999.90;999.90;;;9.10;54.40;;;;;;4970540;28;20023;-87
2022/03/07 10:06:55;;;;;;;1999.90;999.90;;;9.10;53.90;;;;;;4971562;28;20022;-86
2022/03/07 10:09:25;;;;;;;1999.90;999.90;;;9.00;53.60;;;;;;4954397;28;20484;-86
2022/03/07 10:11:53;;;;;;;1999.90;999.90;;;9.00;53.50;;;;;;4972087;28;20511;-88
2022/03/07 10:14:32;;;;;;;1999.90;999.90;;;9.20;53.50;;;;;;4969921;28;20531;-87
2022/03/07 10:16:58;;;;;;;1999.90;999.90;;;9.20;53.10;;;;;;4954546;28;20040;-87
2022/03/07 10:19:25;;;;;;;1999.90;999.90;;;9.20;52.90;;;;;;4972788;28;20027;-87
2022/03/07 10:21:52;;;;;;;1999.90;999.90;;;9.30;53.10;;;;;;4954603;28;20039;-86
2022/03/07 10:24:19;;;;;;;1999.90;999.90;;;9.40;52.90;;;;;;4970334;28;20039;-87
2022/03/07 10:26:45;;;;;;;1999.90;999.90;;;9.50;52.50;;;;;;4969020;28;20380;-90
2022/03/07 10:29:11;;;;;;;1999.90;999.90;;;9.50;52.40;;;;;;4955439;28;20046;-87
2022/03/07 10:31:39;;;;;;;1999.90;999.90;;;9.60;52.10;;;;;;4971848;28;20046;-91
2022/03/07 10:34:07;;;;;;;1999.90;999.90;;;9.60;51.80;;;;;;4972416;28;20031;-88
2022/03/07 10:36:35;;;;;;;1999.90;999.90;;;9.60;51.50;;;;;;4950600;28;20392;-93
2022/03/07 10:39:09;;;;;;;1999.90;999.90;;;9.50;51.00;;;;;;4968522;28;20046;-93
2022/03/07 10:41:42;;;;;;;1999.90;999.90;;;9.50;50.80;;;;;;4973149;28;20030;-93
2022/03/07 10:44:10;;;;;;;1999.90;999.90;;;9.50;50.70;;;;;;4974228;28;20035;-83
2022/03/07 10:46:38;;;;;;;1999.90;999.90;;;9.60;50.30;;;;;;4966695;28;20423;-87
2022/03/07 10:49:06;;;;;;;1999.90;999.90;;;9.70;50.20;;;;;;4953685;28;20045;-83
2022/03/07 10:51:32;;;;;;;1999.90;999.90;;;9.70;50.00;;;;;;4971544;28;20492;-88
2022/03/07 10:54:10;;;;;;;1999.90;999.90;;;9.70;49.80;;;;;;4969572;28;20042;-89
2022/03/07 10:56:47;;;;;;;1999.90;999.90;;;9.70;49.20;;;;;;4969951;28;20448;-89
2022/03/07 10:59:13;;;;;;;1999.90;999.90;;;9.60;49.10;;;;;;4968293;28;20031;-91
2022/03/07 11:01:40;;;;;;;1999.90;999.90;;;9.60;49.10;;;;;;4980139;28;20042;-88
2022/03/07 11:04:06;;;;;;;1999.90;999.90;;;9.70;49.20;;;;;;4971645;28;20393;-86
2022/03/07 11:06:32;;;;;;;1999.90;999.90;;;9.80;49.20;;;;;;4955154;28;20043;-88
2022/03/07 11:08:59;;;;;;;1999.90;999.90;;;9.90;49.00;;;;;;4971256;28;20421;-86
2022/03/07 11:11:25;;;;;;;1999.90;999.90;;;9.90;48.70;;;;;;4970890;28;20038;-90
2022/03/07 11:13:53;;;;;;;1999.90;999.90;;;9.90;48.70;;;;;;4954968;28;20043;-89
2022/03/07 11:16:20;;;;;;;1999.90;999.90;;;10.00;48.40;;;;;;4952943;28;20037;-90
2022/03/07 11:18:52;;;;;;;1999.90;999.90;;;10.00;48.20;;;;;;4969458;28;20027;-90
2022/03/07 11:21:18;;;;;;;1999.90;999.90;;;10.00;47.90;;;;;;4968721;28;20031;-92
2022/03/07 11:23:44;;;;;;;1999.90;999.90;;;9.90;47.90;;;;;;4973005;28;20035;-92
2022/03/07 11:26:11;;;;;;;1999.90;999.90;;;10.00;48.10;;;;;;4969235;28;20039;-90
2022/03/07 11:28:37;;;;;;;1999.90;999.90;;;10.10;47.90;;;;;;4956650;28;20049;-93
2022/03/07 11:31:03;;;;;;;1999.90;999.90;;;10.10;47.80;;;;;;4954523;28;20035;-93
2022/03/07 11:33:37;;;;;;;1999.90;999.90;;;10.10;47.60;;;;;;4960282;28;20427;-89
2022/03/07 11:36:05;;;;;;;1999.90;999.90;;;10.20;47.90;;;;;;4970489;28;20027;-93
2022/03/07 11:38:31;;;;;;;1999.90;999.90;;;10.30;47.70;;;;;;4970427;28;20047;-85
2022/03/07 11:41:02;;;;;;;1999.90;999.90;;;10.30;47.40;;;;;;4967545;28;20429;-90
2022/03/07 11:43:30;;;;;;;1999.90;999.90;;;10.30;47.10;;;;;;4968946;28;20035;-82
2022/03/07 11:45:56;;;;;;;1999.90;999.90;;;10.30;47.10;;;;;;4967921;28;20042;-85
2022/03/07 11:48:23;;;;;;;1999.90;999.90;;;10.30;47.00;;;;;;4954024;28;20058;-83
2022/03/07 11:50:49;;;;;;;1999.90;999.90;;;10.30;46.70;;;;;;4950729;28;20027;-82
2022/03/07 11:53:15;;;;;;;1999.90;999.90;;;10.30;46.70;;;;;;4954710;28;20070;-82
2022/03/07 11:55:45;;;;;;;1999.90;999.90;;;10.30;46.50;;;;;;4952851;28;20045;-82
2022/03/07 11:58:11;;;;;;;1999.90;999.90;;;10.40;46.40;;;;;;4956011;28;20042;-84
2022/03/07 12:00:38;;;;;;;1999.90;999.90;;;10.50;46.40;;;;;;4950909;28;20480;-82
2022/03/07 12:03:13;;;;;;;1999.90;999.90;;;10.60;46.50;;;;;;4954653;28;20089;-82
2022/03/07 12:05:39;;;;;;;1999.90;999.90;;;10.70;46.10;;;;;;4969234;28;20031;-82
2022/03/07 12:08:07;;;;;;;1999.90;999.90;;;10.70;46.00;;;;;;4968154;28;20034;-82
2022/03/07 12:10:33;;;;;;;1999.90;999.90;;;10.70;45.80;;;;;;4970839;28;20037;-82
2022/03/07 12:13:09;;;;;;;1999.90;999.90;;;10.80;45.90;;;;;;4953832;28;20035;-82
2022/03/07 12:15:48;;;;;;;1999.90;999.90;;;10.90;45.90;;;;;;4965095;28;20066;-82
2022/03/07 12:18:15;;;;;;;1999.90;999.90;;;11.00;45.90;;;;;;4952751;28;20031;-82
2022/03/07 12:20:54;;;;;;;1999.90;999.90;;;11.00;45.50;;;;;;4954099;28;20054;-82
2022/03/07 12:23:23;;;;;;;1999.90;999.90;;;11.00;45.60;;;;;;4943145;28;20404;-82